Terminal Aerodrome Forecast
Issued by NWS

Home | Current Version | Previous Version | Text Only | Print | Product List | Glossary On
Versions: 1 2 3 4 5 6 7 8 9 10 11 12 13 14 15 16
000
FTUS45 KFGZ 131700
TAFSEZ
TAF
KSEZ 131729Z 1318/1418 VRB06KT P6SM FEW080 BKN130
     FM132000 11009KT P6SM BKN080 BKN100
      TEMPO 1320/1324 VRB20G35KT 5SM TSRA SCT045 OVC060CB
     FM140300 04009KT P6SM BKN080=

USA.gov is the U.S. government's official web portal to all federal, state and local government web resources and services.